Time;durP1;ratioP1;P1;durP2;ratioP2;P2;SDS_P1;SDS_P2;PMS_P1;PMS_P2;Temp;Humidity;BMP_temperature;BMP_pressure;BME280_temperature;BME280_humidity;BME280_pressure;Samples;Min_cycle;Max_cycle;Signal;HPM_P1;HPM_P2
2022/03/20 00:01:00;;;;;;;8.57;5.05;;;5.50;99.90;;;;;;5072093;28;20037;-61
2022/03/20 00:03:25;;;;;;;14.77;6.07;;;5.50;99.90;;;;;;5071874;28;20044;-61
2022/03/20 00:05:51;;;;;;;10.43;5.32;;;5.50;99.90;;;;;;5072075;28;20423;-61
2022/03/20 00:08:17;;;;;;;10.55;5.65;;;5.50;99.90;;;;;;5072003;28;20063;-61
2022/03/20 00:10:48;;;;;;;10.23;5.43;;;5.50;99.90;;;;;;5071835;28;20044;-61
2022/03/20 00:13:15;;;;;;;8.98;5.57;;;5.40;99.90;;;;;;5072229;28;20043;-61
2022/03/20 00:15:42;;;;;;;10.52;5.07;;;5.50;99.90;;;;;;5071819;28;20123;-61
2022/03/20 00:18:09;;;;;;;11.63;4.82;;;5.50;99.90;;;;;;5071872;28;20037;-61
2022/03/20 00:20:37;;;;;;;11.55;5.88;;;5.50;99.90;;;;;;5087246;28;20036;-60
2022/03/20 00:23:07;;;;;;;10.38;5.63;;;5.50;99.90;;;;;;5071673;28;20056;-61
2022/03/20 00:25:38;;;;;;;9.80;5.63;;;5.50;99.90;;;;;;5071658;28;20044;-61
2022/03/20 00:28:04;;;;;;;10.25;5.65;;;5.50;99.90;;;;;;5071732;28;20399;-61
2022/03/20 00:30:31;;;;;;;8.63;5.10;;;5.40;99.90;;;;;;5074905;28;20045;-61
2022/03/20 00:32:57;;;;;;;11.27;5.60;;;5.40;99.90;;;;;;5075904;28;20552;-61
2022/03/20 00:35:23;;;;;;;8.68;5.78;;;5.40;99.90;;;;;;5075977;28;20557;-61
2022/03/20 00:37:48;;;;;;;8.27;5.35;;;5.40;99.90;;;;;;5075759;28;20037;-61
2022/03/20 00:40:14;;;;;;;9.98;5.47;;;5.40;99.90;;;;;;5075441;28;20082;-61
2022/03/20 00:42:39;;;;;;;11.77;5.50;;;5.40;99.90;;;;;;5075438;28;20494;-61
2022/03/20 00:45:06;;;;;;;10.05;5.18;;;5.30;99.90;;;;;;5075685;28;20088;-61
2022/03/20 00:47:31;;;;;;;10.57;5.25;;;5.30;99.90;;;;;;5075592;28;20394;-61
2022/03/20 00:49:57;;;;;;;10.35;5.65;;;5.20;99.90;;;;;;5075291;28;20032;-61
2022/03/20 00:52:23;;;;;;;10.90;5.00;;;5.30;99.90;;;;;;5075388;28;20494;-61
2022/03/20 00:54:49;;;;;;;9.80;5.75;;;5.20;99.90;;;;;;5075294;28;20041;-61
2022/03/20 00:57:15;;;;;;;8.63;5.50;;;5.20;99.90;;;;;;5073946;28;20036;-61
2022/03/20 00:59:41;;;;;;;9.18;5.70;;;5.20;99.90;;;;;;5075546;28;20040;-61
2022/03/20 01:02:08;;;;;;;10.57;5.72;;;5.10;99.90;;;;;;5075597;28;20047;-61
2022/03/20 01:04:38;;;;;;;12.98;5.60;;;5.10;99.90;;;;;;5075019;28;20509;-61
2022/03/20 01:07:04;;;;;;;10.18;6.75;;;5.10;99.90;;;;;;5075099;28;20544;-60
2022/03/20 01:09:30;;;;;;;9.77;5.50;;;5.10;99.90;;;;;;5074963;28;20470;-61
2022/03/20 01:11:56;;;;;;;11.60;5.72;;;5.00;99.90;;;;;;5073526;28;20128;-61
2022/03/20 01:14:23;;;;;;;9.68;5.72;;;5.00;99.90;;;;;;5075125;28;20115;-61
2022/03/20 01:16:49;;;;;;;10.00;5.85;;;5.00;99.90;;;;;;5074853;28;20041;-61
2022/03/20 01:19:15;;;;;;;10.77;6.43;;;5.00;99.90;;;;;;5075150;28;20032;-61
2022/03/20 01:21:41;;;;;;;9.68;5.80;;;4.90;99.90;;;;;;5074647;28;20540;-61
2022/03/20 01:24:08;;;;;;;12.80;5.55;;;4.90;99.90;;;;;;5074702;28;20044;-61
2022/03/20 01:26:35;;;;;;;6.22;5.10;;;4.90;99.90;;;;;;5074871;28;20123;-61
2022/03/20 01:29:00;;;;;;;10.82;6.30;;;4.90;99.90;;;;;;5074783;28;20047;-61
2022/03/20 01:31:28;;;;;;;10.60;5.45;;;4.80;99.90;;;;;;5074556;28;20040;-61
2022/03/20 01:33:54;;;;;;;9.10;6.20;;;4.80;99.90;;;;;;5073424;28;20101;-61
2022/03/20 01:36:20;;;;;;;15.00;5.45;;;4.80;99.90;;;;;;5074514;28;20037;-61
2022/03/20 01:38:46;;;;;;;13.18;6.72;;;4.70;99.90;;;;;;5074416;28;20101;-61
2022/03/20 01:41:12;;;;;;;10.32;5.85;;;4.70;99.90;;;;;;5073726;28;20060;-60
2022/03/20 01:43:38;;;;;;;9.25;6.38;;;4.70;99.90;;;;;;5073381;28;20052;-61
2022/03/20 01:46:04;;;;;;;13.15;6.10;;;4.70;99.90;;;;;;5074640;28;20059;-61
2022/03/20 01:48:30;;;;;;;11.07;6.18;;;4.60;99.90;;;;;;5074398;28;20044;-60
2022/03/20 01:50:56;;;;;;;14.07;6.50;;;4.60;99.90;;;;;;5074253;28;20399;-61
2022/03/20 01:53:21;;;;;;;13.02;6.53;;;4.60;99.90;;;;;;5074518;28;20036;-61
2022/03/20 01:55:50;;;;;;;12.57;7.60;;;4.60;99.90;;;;;;5074215;28;20551;-61
2022/03/20 01:58:17;;;;;;;12.77;6.47;;;4.50;99.90;;;;;;5074185;28;20045;-61
2022/03/20 02:00:43;;;;;;;12.73;6.97;;;4.50;99.90;;;;;;5074150;28;20047;-61
2022/03/20 02:03:09;;;;;;;11.70;6.35;;;4.50;99.90;;;;;;5074061;28;20037;-61
2022/03/20 02:05:35;;;;;;;12.48;6.35;;;4.50;99.90;;;;;;5072674;28;20040;-61
2022/03/20 02:08:01;;;;;;;11.32;6.43;;;4.40;99.90;;;;;;5073854;28;20040;-60
2022/03/20 02:10:35;;;;;;;13.63;6.88;;;4.40;99.90;;;;;;5074238;28;20044;-60
2022/03/20 02:13:01;;;;;;;13.65;7.38;;;4.40;99.90;;;;;;5074283;28;20048;-60
2022/03/20 02:15:27;;;;;;;16.17;7.25;;;4.40;99.90;;;;;;5073648;28;20033;-60
2022/03/20 02:17:53;;;;;;;11.85;6.97;;;4.40;99.90;;;;;;5072697;28;20046;-61
2022/03/20 02:20:20;;;;;;;12.07;6.97;;;4.40;99.90;;;;;;5073719;28;20116;-61
2022/03/20 02:22:45;;;;;;;13.77;6.95;;;4.30;99.90;;;;;;5073705;28;20498;-61
2022/03/20 02:25:15;;;;;;;15.85;8.30;;;4.30;99.90;;;;;;5072596;28;20055;-60
2022/03/20 02:27:44;;;;;;;11.43;7.35;;;4.30;99.90;;;;;;5072575;28;20499;-61
2022/03/20 02:30:15;;;;;;;13.50;7.95;;;4.30;99.90;;;;;;5089360;28;20048;-61
2022/03/20 02:32:43;;;;;;;13.15;7.65;;;4.30;99.90;;;;;;5073881;28;20045;-61
2022/03/20 02:35:14;;;;;;;14.38;8.13;;;4.30;99.90;;;;;;5073594;28;20063;-61
2022/03/20 02:37:51;;;;;;;15.48;8.55;;;4.20;99.90;;;;;;5073532;28;20047;-61
2022/03/20 02:40:19;;;;;;;16.02;8.77;;;4.20;99.90;;;;;;5073466;28;20075;-61
2022/03/20 02:42:48;;;;;;;14.93;8.77;;;4.20;99.90;;;;;;5073039;28;20410;-61
2022/03/20 02:45:23;;;;;;;15.07;8.98;;;4.20;99.90;;;;;;5073534;28;20044;-60
2022/03/20 02:47:51;;;;;;;14.95;8.57;;;4.20;99.90;;;;;;5073406;28;20045;-61
2022/03/20 02:50:24;;;;;;;15.13;9.43;;;4.10;99.90;;;;;;5073152;28;20036;-61
2022/03/20 02:52:58;;;;;;;14.63;9.05;;;4.10;99.90;;;;;;5073204;28;20036;-61
2022/03/20 02:55:36;;;;;;;17.45;9.27;;;4.10;99.90;;;;;;5073011;28;20041;-61
2022/03/20 02:58:05;;;;;;;13.82;8.65;;;4.10;99.90;;;;;;5073130;28;20067;-61
2022/03/20 03:00:33;;;;;;;17.05;9.55;;;4.10;99.90;;;;;;5073135;28;20043;-61
2022/03/20 03:03:01;;;;;;;11.82;8.82;;;4.10;99.90;;;;;;5072955;28;20447;-60
2022/03/20 03:05:29;;;;;;;16.13;8.95;;;4.10;99.90;;;;;;5072793;28;20041;-61
2022/03/20 03:11:01;;;;;;;18.90;9.60;;;4.00;99.90;;;;;;5072875;28;20049;-61
2022/03/20 03:13:39;;;;;;;19.88;9.35;;;4.00;99.90;;;;;;5072607;28;20128;-62
2022/03/20 03:16:06;;;;;;;17.48;9.65;;;4.00;99.90;;;;;;5072615;28;20461;-61
2022/03/20 03:18:33;;;;;;;16.90;10.10;;;4.00;99.90;;;;;;5072427;28;20033;-61
2022/03/20 03:20:59;;;;;;;15.57;10.20;;;4.00;99.90;;;;;;5072877;28;20036;-61
2022/03/20 03:23:25;;;;;;;16.80;9.98;;;3.90;99.90;;;;;;5071108;28;20041;-61
2022/03/20 03:25:52;;;;;;;16.10;10.00;;;3.90;99.90;;;;;;5072625;28;20123;-61
2022/03/20 03:28:17;;;;;;;17.00;10.60;;;3.90;99.90;;;;;;5072678;28;20052;-60
2022/03/20 03:30:45;;;;;;;13.88;9.75;;;3.90;99.90;;;;;;5072742;28;20131;-61
2022/03/20 03:33:17;;;;;;;16.23;10.50;;;3.90;99.90;;;;;;5072575;28;20083;-60
2022/03/20 03:35:51;;;;;;;16.25;10.30;;;3.90;99.90;;;;;;5072391;28;20044;-60
2022/03/20 03:38:19;;;;;;;21.20;11.50;;;3.90;99.90;;;;;;5054266;28;20463;-61
2022/03/20 03:40:47;;;;;;;16.42;11.20;;;3.90;99.90;;;;;;5070144;28;20407;-61
2022/03/20 03:43:17;;;;;;;19.55;11.38;;;3.80;99.90;;;;;;5070866;28;20048;-62
2022/03/20 03:45:44;;;;;;;17.15;10.77;;;3.80;99.90;;;;;;5070765;28;20091;-61
2022/03/20 03:48:11;;;;;;;18.23;11.27;;;3.80;99.90;;;;;;5072154;28;20048;-61
2022/03/20 03:50:38;;;;;;;19.77;10.75;;;3.80;99.90;;;;;;5072252;28;20406;-60
2022/03/20 03:53:05;;;;;;;18.80;11.48;;;3.70;99.90;;;;;;5070884;28;20044;-61
2022/03/20 03:55:31;;;;;;;17.50;11.30;;;3.80;99.90;;;;;;5072033;28;20044;-61
2022/03/20 03:57:58;;;;;;;16.67;11.43;;;3.70;99.90;;;;;;5070633;28;20036;-61
2022/03/20 04:00:24;;;;;;;16.55;11.73;;;3.70;99.90;;;;;;5071838;28;20075;-61
2022/03/20 04:02:50;;;;;;;18.40;11.60;;;3.60;99.90;;;;;;5071913;28;20145;-60
2022/03/20 04:05:17;;;;;;;18.05;12.02;;;3.60;99.90;;;;;;5070413;28;20513;-61
2022/03/20 04:07:47;;;;;;;18.65;11.75;;;3.60;99.90;;;;;;5070737;28;20504;-61
2022/03/20 04:10:14;;;;;;;18.95;11.73;;;3.50;99.90;;;;;;5070578;28;20044;-61
2022/03/20 04:12:43;;;;;;;18.58;11.73;;;3.50;99.90;;;;;;5070097;28;20048;-61
2022/03/20 04:15:14;;;;;;;17.20;12.00;;;3.50;99.90;;;;;;5071837;28;20136;-61
2022/03/20 04:17:40;;;;;;;19.38;11.88;;;3.50;99.90;;;;;;5072036;28;20045;-60
2022/03/20 04:20:10;;;;;;;23.35;12.10;;;3.50;99.90;;;;;;5072008;28;20067;-60
2022/03/20 04:22:37;;;;;;;16.73;11.18;;;3.40;99.90;;;;;;5071862;28;20159;-61
2022/03/20 04:25:04;;;;;;;18.08;12.20;;;3.40;99.90;;;;;;5070044;28;20406;-61
2022/03/20 04:27:30;;;;;;;16.63;12.10;;;3.40;99.90;;;;;;5071524;28;20040;-61
2022/03/20 04:29:56;;;;;;;18.55;12.23;;;3.40;99.90;;;;;;5071818;28;20049;-60
2022/03/20 04:32:22;;;;;;;17.45;11.38;;;3.40;99.90;;;;;;5071733;28;20044;-61
2022/03/20 04:34:48;;;;;;;18.60;11.60;;;3.40;99.90;;;;;;5071901;28;20079;-61
2022/03/20 04:37:14;;;;;;;18.35;12.07;;;3.30;99.90;;;;;;5071774;28;20041;-61
2022/03/20 04:39:40;;;;;;;22.35;12.50;;;3.30;99.90;;;;;;5071584;28;20039;-60
2022/03/20 04:42:09;;;;;;;19.30;12.45;;;3.30;99.90;;;;;;5071501;28;20468;-60
2022/03/20 04:44:39;;;;;;;19.58;12.18;;;3.30;99.90;;;;;;5071739;28;20155;-60
2022/03/20 04:47:06;;;;;;;19.67;11.75;;;3.30;99.90;;;;;;5071668;28;20047;-60
2022/03/20 05:00:29;;;;;;;21.73;13.25;;;3.20;99.90;;;;;;5071364;28;20045;-61
2022/03/20 05:02:55;;;;;;;21.17;12.45;;;3.10;99.90;;;;;;5071285;28;20501;-60
2022/03/20 05:05:21;;;;;;;18.65;11.80;;;3.10;99.90;;;;;;5070263;28;20045;-61
2022/03/20 05:07:46;;;;;;;19.75;12.68;;;3.00;99.90;;;;;;5071170;28;20037;-61
2022/03/20 05:15:40;;;;;;;19.38;12.75;;;3.00;99.90;;;;;;5071208;28;20044;-60
2022/03/20 05:18:07;;;;;;;20.77;13.07;;;3.00;99.90;;;;;;5075017;28;20097;-61
2022/03/20 05:20:33;;;;;;;21.88;13.10;;;3.00;99.90;;;;;;5074920;28;20044;-61
2022/03/20 05:22:59;;;;;;;23.70;14.43;;;3.00;99.90;;;;;;5075103;28;20074;-61
2022/03/20 05:25:28;;;;;;;23.00;14.05;;;2.90;99.90;;;;;;5074701;28;20037;-61
2022/03/20 05:27:54;;;;;;;19.50;13.50;;;2.90;99.90;;;;;;5073423;28;20043;-61
2022/03/20 05:30:20;;;;;;;23.77;14.23;;;2.90;99.90;;;;;;5074700;28;20037;-61
2022/03/20 05:32:47;;;;;;;24.27;13.88;;;2.90;99.90;;;;;;5074688;28;20150;-61
2022/03/20 05:35:15;;;;;;;21.73;14.02;;;2.90;99.90;;;;;;5074451;28;20045;-61
2022/03/20 05:37:42;;;;;;;21.67;14.23;;;2.90;99.90;;;;;;5090144;28;20051;-61
2022/03/20 05:40:08;;;;;;;21.88;13.55;;;2.90;99.90;;;;;;5074607;28;20116;-61
2022/03/20 05:42:36;;;;;;;22.52;14.38;;;2.90;99.90;;;;;;5074194;28;20498;-61
2022/03/20 05:45:05;;;;;;;26.88;14.43;;;2.90;99.90;;;;;;5074673;28;20075;-61
2022/03/20 05:47:33;;;;;;;;;;;2.80;99.90;;;;;;5075107;28;20130;-61
2022/03/20 05:50:01;;;;;;;20.13;13.75;;;2.80;99.90;;;;;;5074364;28;19999;-61
2022/03/20 05:52:31;;;;;;;23.08;14.52;;;2.80;99.90;;;;;;5074330;28;20102;-61
2022/03/20 05:54:57;;;;;;;22.48;14.43;;;2.80;99.90;;;;;;5074473;28;20072;-61
2022/03/20 06:00:16;;;;;;;23.23;15.20;;;2.80;99.90;;;;;;5074441;28;20041;-61
2022/03/20 06:02:43;;;;;;;21.60;14.73;;;2.90;99.90;;;;;;5073165;28;20052;-61
2022/03/20 06:05:09;;;;;;;21.02;14.48;;;2.90;99.90;;;;;;5072838;28;20499;-61
2022/03/20 06:07:46;;;;;;;23.58;14.68;;;2.80;99.90;;;;;;5074362;28;20040;-61
2022/03/20 06:10:17;;;;;;;23.23;15.20;;;2.90;99.90;;;;;;5073986;28;20479;-61
2022/03/20 06:12:43;;;;;;;23.58;16.40;;;2.90;99.90;;;;;;5072578;28;20037;-60
2022/03/20 06:15:09;;;;;;;25.55;15.23;;;3.00;99.90;;;;;;5073793;28;20501;-62
2022/03/20 06:17:40;;;;;;;23.63;15.00;;;3.00;99.90;;;;;;5073844;28;20037;-61
2022/03/20 06:20:08;;;;;;;28.15;15.57;;;3.10;99.90;;;;;;5074193;28;20124;-61
2022/03/20 06:22:35;;;;;;;20.43;14.77;;;3.20;99.90;;;;;;5074351;28;20032;-61
2022/03/20 06:25:08;;;;;;;22.65;14.18;;;3.30;99.90;;;;;;5073824;28;20042;-61
2022/03/20 06:27:48;;;;;;;25.83;14.95;;;3.30;99.90;;;;;;5073340;28;20036;-61
2022/03/20 06:30:15;;;;;;;25.23;15.15;;;3.40;99.90;;;;;;5073563;28;20125;-61
2022/03/20 06:32:42;;;;;;;22.45;14.63;;;3.40;99.90;;;;;;5073729;28;20037;-61
2022/03/20 06:35:09;;;;;;;22.67;14.63;;;3.50;99.90;;;;;;5072572;28;20043;-61
2022/03/20 06:37:36;;;;;;;26.90;14.82;;;3.50;99.90;;;;;;5073518;28;20028;-61
2022/03/20 06:40:03;;;;;;;23.13;15.82;;;3.50;99.90;;;;;;5072197;28;20045;-61
2022/03/20 06:42:28;;;;;;;22.58;14.95;;;3.50;99.90;;;;;;5073221;28;20048;-61
2022/03/20 06:44:55;;;;;;;22.25;15.35;;;3.60;99.90;;;;;;5073325;28;20068;-61
2022/03/20 06:47:23;;;;;;;28.05;15.23;;;3.50;99.90;;;;;;5073412;28;20040;-61
2022/03/20 06:49:49;;;;;;;26.40;15.97;;;3.50;99.90;;;;;;5073188;28;20044;-61
2022/03/20 06:52:15;;;;;;;21.48;15.50;;;3.50;99.90;;;;;;5073110;28;20040;-61
2022/03/20 06:54:40;;;;;;;23.70;14.77;;;3.50;99.90;;;;;;5073370;28;20033;-61
2022/03/20 06:57:06;;;;;;;19.98;14.27;;;3.60;99.90;;;;;;5073091;28;20044;-61
2022/03/20 06:59:31;;;;;;;24.58;14.38;;;3.60;99.90;;;;;;5072880;28;20371;-61
2022/03/20 07:01:58;;;;;;;21.17;14.60;;;3.70;99.90;;;;;;5071590;28;20071;-61
2022/03/20 07:04:23;;;;;;;23.42;15.30;;;3.70;99.90;;;;;;5072937;28;20086;-61
2022/03/20 07:06:49;;;;;;;22.75;15.35;;;3.80;99.90;;;;;;5071505;28;20045;-61
2022/03/20 07:09:15;;;;;;;23.50;15.15;;;3.70;99.90;;;;;;5072853;28;20044;-61
2022/03/20 07:11:40;;;;;;;21.27;14.85;;;3.80;99.90;;;;;;5072743;28;20123;-61
2022/03/20 07:14:06;;;;;;;24.00;16.05;;;3.90;99.90;;;;;;5072631;28;20075;-61
2022/03/20 07:16:33;;;;;;;22.13;15.38;;;4.00;99.90;;;;;;5072908;28;20037;-62
2022/03/20 07:18:59;;;;;;;26.85;15.75;;;4.10;99.90;;;;;;5072809;28;20403;-62
2022/03/20 07:21:25;;;;;;;21.27;15.63;;;4.20;99.90;;;;;;5072660;28;20033;-62
2022/03/20 07:23:52;;;;;;;20.70;14.32;;;4.30;99.90;;;;;;5071478;28;20476;-62
2022/03/20 07:31:48;;;;;;;23.65;15.80;;;4.70;99.90;;;;;;5072494;28;20098;-60
2022/03/20 07:34:14;;;;;;;25.02;14.77;;;4.80;99.90;;;;;;5072434;28;20111;-59
2022/03/20 07:36:40;;;;;;;23.85;14.88;;;4.90;99.90;;;;;;5072239;28;20443;-60
2022/03/20 07:39:05;;;;;;;22.73;15.13;;;5.00;99.90;;;;;;5071494;28;20059;-61
2022/03/20 07:41:31;;;;;;;22.17;15.65;;;5.20;99.90;;;;;;5072351;28;20119;-59
2022/03/20 07:43:57;;;;;;;22.00;15.18;;;5.20;99.90;;;;;;5072308;28;20479;-60
2022/03/20 07:46:23;;;;;;;24.52;15.60;;;5.40;99.90;;;;;;5072093;28;20115;-60
2022/03/20 07:48:50;;;;;;;22.77;14.95;;;5.40;99.90;;;;;;5072074;28;20032;-59
2022/03/20 07:51:17;;;;;;;25.20;15.75;;;5.60;99.90;;;;;;5071929;28;20037;-60
2022/03/20 07:53:43;;;;;;;20.85;14.95;;;5.70;99.90;;;;;;5071992;28;20068;-59
2022/03/20 07:56:09;;;;;;;21.02;15.23;;;5.80;99.90;;;;;;5072107;28;20041;-60
2022/03/20 07:58:35;;;;;;;27.35;15.73;;;5.80;99.90;;;;;;5072044;28;20494;-60
2022/03/20 08:01:00;;;;;;;22.20;15.02;;;5.60;99.90;;;;;;5072088;28;20055;-60
2022/03/20 08:03:26;;;;;;;29.85;15.80;;;5.60;99.90;;;;;;5071851;28;20131;-61
2022/03/20 08:05:51;;;;;;;21.70;15.25;;;5.70;99.90;;;;;;5071954;28;20044;-62
2022/03/20 08:08:17;;;;;;;27.23;15.32;;;5.80;99.90;;;;;;5072136;28;20127;-61
2022/03/20 08:10:43;;;;;;;24.63;14.68;;;6.00;99.90;;;;;;5072276;28;20089;-62
2022/03/20 08:13:11;;;;;;;25.30;15.23;;;6.10;99.90;;;;;;5071763;28;20076;-62
2022/03/20 08:15:38;;;;;;;24.00;14.98;;;6.40;99.90;;;;;;5071965;28;20048;-61
2022/03/20 08:18:06;;;;;;;23.98;15.27;;;6.50;99.90;;;;;;5071840;28;20040;-62
2022/03/20 08:20:31;;;;;;;21.70;15.55;;;6.70;99.90;;;;;;5071984;28;20080;-62
2022/03/20 08:22:57;;;;;;;21.10;15.32;;;6.80;99.90;;;;;;5071811;28;20068;-61
2022/03/20 08:25:25;;;;;;;25.20;15.95;;;7.00;99.90;;;;;;5071907;28;20041;-61
2022/03/20 08:27:51;;;;;;;21.55;15.40;;;7.20;99.90;;;;;;5070271;28;20115;-61
2022/03/20 08:30:17;;;;;;;23.67;16.15;;;7.20;99.90;;;;;;5070574;28;20131;-61
2022/03/20 08:32:46;;;;;;;23.58;15.98;;;7.30;99.90;;;;;;5071535;28;20043;-61
2022/03/20 08:35:14;;;;;;;26.75;15.98;;;7.30;99.90;;;;;;5071519;28;20086;-61
2022/03/20 08:37:50;;;;;;;27.83;16.73;;;7.60;99.90;;;;;;5071718;28;20037;-61
2022/03/20 08:40:19;;;;;;;25.50;17.63;;;7.60;99.90;;;;;;5071744;28;20124;-61
2022/03/20 08:42:47;;;;;;;24.45;16.35;;;7.70;99.90;;;;;;5071352;28;20051;-61
2022/03/20 08:45:13;;;;;;;25.40;15.95;;;7.50;99.90;;;;;;5071449;28;20047;-61
2022/03/20 08:47:40;;;;;;;23.88;16.42;;;7.80;99.90;;;;;;5071376;28;20042;-61
2022/03/20 08:50:06;;;;;;;26.20;16.52;;;8.20;99.90;;;;;;5070801;28;20513;-61
2022/03/20 08:52:32;;;;;;;25.52;16.08;;;8.50;99.90;;;;;;5075650;28;20047;-61
2022/03/20 08:54:58;;;;;;;25.42;16.45;;;8.30;99.90;;;;;;5075164;28;20437;-61
2022/03/20 08:57:28;;;;;;;25.05;16.17;;;8.20;99.90;;;;;;5075493;28;20029;-62
2022/03/20 08:59:56;;;;;;;23.17;15.88;;;8.50;99.90;;;;;;5074301;28;20048;-61
2022/03/20 09:02:22;;;;;;;24.70;16.30;;;8.40;99.90;;;;;;5075225;28;20036;-61
2022/03/20 09:04:47;;;;;;;27.95;17.00;;;8.60;99.90;;;;;;5075187;28;20040;-61
2022/03/20 09:07:13;;;;;;;25.00;17.20;;;8.80;99.90;;;;;;5075025;28;20040;-61
2022/03/20 09:09:38;;;;;;;25.48;16.48;;;8.80;99.90;;;;;;5075062;28;20044;-61
2022/03/20 09:12:05;;;;;;;24.60;16.65;;;9.00;99.90;;;;;;5075129;28;20033;-61
2022/03/20 09:14:30;;;;;;;28.42;17.45;;;9.00;99.90;;;;;;5075048;28;20032;-61
2022/03/20 09:19:40;;;;;;;21.42;16.92;;;9.30;99.90;;;;;;5075297;28;20051;-61
2022/03/20 09:22:06;;;;;;;25.23;17.27;;;9.20;99.90;;;;;;5074844;28;20032;-61
2022/03/20 09:24:33;;;;;;;22.77;17.42;;;9.50;99.90;;;;;;5074806;28;20137;-61
2022/03/20 09:27:00;;;;;;;24.25;17.35;;;9.50;99.90;;;;;;5074808;28;20036;-62
2022/03/20 09:29:26;;;;;;;22.88;17.20;;;9.40;99.90;;;;;;5074680;28;20398;-62
2022/03/20 09:31:52;;;;;;;26.52;17.67;;;9.60;99.90;;;;;;5074816;28;20449;-62
2022/03/20 09:34:18;;;;;;;28.17;16.83;;;9.70;99.90;;;;;;5074574;28;20390;-61
2022/03/20 09:36:44;;;;;;;22.00;16.58;;;9.70;99.90;;;;;;5073245;28;20132;-61
2022/03/20 09:39:09;;;;;;;28.23;17.67;;;9.60;99.90;;;;;;5074558;28;20109;-60
2022/03/20 09:41:43;;;;;;;24.77;17.77;;;10.00;99.90;;;;;;5074214;28;20091;-62
2022/03/20 09:44:10;;;;;;;28.67;17.45;;;9.90;99.90;;;;;;5074345;28;20475;-62
2022/03/20 09:46:36;;;;;;;25.10;17.55;;;9.80;99.90;;;;;;5074530;28;20040;-61
2022/03/20 09:49:05;;;;;;;26.13;18.30;;;9.90;99.90;;;;;;5074417;28;20044;-62
2022/03/20 09:51:32;;;;;;;27.45;19.15;;;10.30;99.90;;;;;;5074792;28;20044;-62
2022/03/20 09:53:58;;;;;;;25.05;17.35;;;9.90;99.70;;;;;;5074385;28;20044;-62
2022/03/20 09:56:24;;;;;;;25.52;18.15;;;9.90;98.90;;;;;;5074076;28;20051;-61
2022/03/20 09:58:49;;;;;;;26.33;17.60;;;9.80;99.60;;;;;;5074319;28;20044;-62
2022/03/20 10:01:16;;;;;;;23.67;18.02;;;10.00;99.40;;;;;;5074040;28;20036;-62
2022/03/20 10:03:42;;;;;;;25.85;18.02;;;9.90;99.40;;;;;;5073680;28;20029;-64
2022/03/20 10:06:17;;;;;;;23.90;17.40;;;10.00;99.00;;;;;;5073986;28;20127;-62
2022/03/20 10:09:00;;;;;;;25.98;18.25;;;10.00;98.60;;;;;;5074070;28;20508;-62
2022/03/20 10:11:27;;;;;;;25.17;17.17;;;10.10;98.70;;;;;;5074087;28;20387;-62
2022/03/20 10:14:13;;;;;;;28.35;19.05;;;10.30;98.40;;;;;;5074078;28;20119;-61
2022/03/20 10:16:50;;;;;;;28.25;18.67;;;10.50;99.10;;;;;;5073837;28;20080;-62
2022/03/20 10:19:26;;;;;;;27.20;19.42;;;10.50;98.70;;;;;;5074131;28;20048;-62
2022/03/20 10:21:54;;;;;;;24.65;17.95;;;10.30;97.50;;;;;;5073930;28;20033;-63
2022/03/20 10:24:22;;;;;;;29.55;19.77;;;10.30;97.50;;;;;;5073594;28;20072;-62
2022/03/20 10:27:02;;;;;;;28.85;18.50;;;10.40;97.60;;;;;;5073762;28;20050;-62
2022/03/20 10:29:30;;;;;;;31.25;19.63;;;10.60;98.30;;;;;;5073640;28;20032;-62
2022/03/20 10:32:08;;;;;;;26.52;18.77;;;10.60;97.70;;;;;;5073619;28;20047;-62
2022/03/20 10:34:57;;;;;;;23.98;17.45;;;10.70;97.20;;;;;;5073759;28;20393;-60
2022/03/20 10:37:49;;;;;;;26.65;19.52;;;10.60;96.50;;;;;;5073868;28;20044;-61
2022/03/20 10:40:23;;;;;;;25.58;19.05;;;10.60;96.10;;;;;;5073287;28;20487;-61
2022/03/20 10:43:16;;;;;;;26.35;18.20;;;10.70;96.60;;;;;;5073223;28;20056;-62
2022/03/20 10:46:00;;;;;;;27.35;19.85;;;11.00;96.50;;;;;;5071461;28;20135;-62
2022/03/20 10:48:42;;;;;;;27.60;19.35;;;11.20;95.90;;;;;;5073287;28;20398;-62
2022/03/20 10:51:08;;;;;;;26.20;19.27;;;11.20;96.40;;;;;;5073450;28;20426;-62
2022/03/20 10:53:55;;;;;;;26.75;18.00;;;11.30;96.30;;;;;;5073235;28;20044;-61
2022/03/20 10:56:21;;;;;;;26.85;19.58;;;11.30;95.80;;;;;;5073058;28;20391;-62
2022/03/20 10:58:48;;;;;;;25.60;18.48;;;11.10;95.40;;;;;;5072931;28;20039;-62
2022/03/20 11:01:14;;;;;;;28.05;19.80;;;11.30;95.40;;;;;;5072836;28;20458;-62
2022/03/20 11:03:40;;;;;;;29.17;19.48;;;11.10;95.10;;;;;;5073105;28;20068;-62
2022/03/20 11:06:10;;;;;;;30.95;20.15;;;11.20;95.60;;;;;;5073064;28;20110;-59
2022/03/20 11:08:37;;;;;;;26.25;19.20;;;11.30;95.20;;;;;;5072796;28;20090;-61
2022/03/20 11:11:04;;;;;;;26.80;18.33;;;11.30;95.10;;;;;;5072795;28;20044;-61
2022/03/20 11:13:33;;;;;;;30.95;20.52;;;11.60;96.20;;;;;;5071907;28;20115;-61
2022/03/20 11:16:02;;;;;;;24.30;19.20;;;11.90;95.70;;;;;;5072599;28;20040;-61
2022/03/20 11:18:30;;;;;;;29.02;19.73;;;12.10;95.10;;;;;;5072701;28;20064;-61
2022/03/20 11:21:01;;;;;;;22.98;18.13;;;11.90;94.50;;;;;;5072662;28;20093;-61
2022/03/20 11:23:29;;;;;;;29.73;20.67;;;12.00;95.00;;;;;;5072652;28;20048;-62
2022/03/20 11:25:56;;;;;;;26.05;19.45;;;12.00;94.40;;;;;;5072457;28;20158;-61
2022/03/20 11:28:23;;;;;;;28.83;19.67;;;12.10;94.70;;;;;;5072280;28;20546;-60
2022/03/20 11:30:49;;;;;;;28.42;19.60;;;12.10;94.00;;;;;;5072342;28;20115;-61
2022/03/20 11:33:19;;;;;;;26.00;19.85;;;12.30;94.60;;;;;;5072371;28;20037;-61
2022/03/20 11:35:45;;;;;;;27.95;19.55;;;12.60;94.60;;;;;;5072222;28;20036;-61
2022/03/20 11:38:24;;;;;;;29.88;20.17;;;12.40;94.00;;;;;;5072194;28;20089;-61
2022/03/20 11:41:14;;;;;;;26.05;20.13;;;12.50;94.00;;;;;;5072113;28;20479;-61
2022/03/20 11:43:45;;;;;;;26.67;19.35;;;12.60;93.60;;;;;;5072280;28;20051;-61
2022/03/20 11:46:28;;;;;;;28.60;19.85;;;12.50;93.20;;;;;;5072221;28;20044;-61
2022/03/20 11:49:20;;;;;;;27.88;20.25;;;12.50;93.10;;;;;;5072218;28;20040;-61
2022/03/20 11:52:07;;;;;;;27.33;20.05;;;12.30;92.90;;;;;;5072132;28;20106;-61
2022/03/20 11:54:42;;;;;;;26.10;19.60;;;12.50;93.30;;;;;;5072059;28;20083;-61
2022/03/20 11:57:26;;;;;;;28.70;20.30;;;12.60;92.60;;;;;;5071925;28;20036;-61
2022/03/20 11:59:56;;;;;;;26.70;19.48;;;12.70;93.10;;;;;;5072057;28;20137;-61
2022/03/20 12:02:58;;;;;;;29.13;20.75;;;12.90;92.40;;;;;;5070665;28;20037;-61
2022/03/20 12:05:41;;;;;;;26.13;19.60;;;12.90;91.90;;;;;;5029679;28;20407;-61
2022/03/20 12:08:31;;;;;;;26.70;19.98;;;13.10;92.40;;;;;;5029762;28;20037;-61
2022/03/20 12:11:34;;;;;;;26.80;19.40;;;13.10;91.70;;;;;;5029750;28;20056;-61
2022/03/20 12:14:20;;;;;;;28.42;20.58;;;13.00;91.70;;;;;;4951562;29;20495;-62
2022/03/20 12:16:50;;;;;;;28.38;20.08;;;13.10;91.20;;;;;;4951727;29;20502;-62
2022/03/20 12:19:18;;;;;;;27.65;21.10;;;13.10;91.70;;;;;;4950868;29;20051;-61
2022/03/20 12:22:03;;;;;;;29.35;20.60;;;12.90;90.50;;;;;;4951517;29;20446;-62
2022/03/20 12:24:34;;;;;;;27.98;19.38;;;12.90;90.80;;;;;;4951637;28;20062;-61
2022/03/20 12:27:25;;;;;;;32.80;20.25;;;13.00;91.20;;;;;;4951541;29;20043;-62
2022/03/20 12:30:21;;;;;;;25.50;19.70;;;13.30;91.20;;;;;;4951472;29;20063;-61
2022/03/20 12:32:46;;;;;;;28.75;19.75;;;13.50;91.00;;;;;;4951226;29;20051;-61
2022/03/20 12:35:15;;;;;;;28.55;20.05;;;13.60;90.70;;;;;;4951431;29;20062;-61
2022/03/20 12:37:43;;;;;;;28.88;19.83;;;13.70;90.90;;;;;;4951333;29;20102;-61
2022/03/20 12:40:14;;;;;;;23.20;18.67;;;13.70;90.50;;;;;;4951515;29;20039;-61
2022/03/20 12:42:43;;;;;;;24.13;19.10;;;13.60;90.10;;;;;;4986682;28;20429;-61
2022/03/20 12:45:16;;;;;;;24.88;18.27;;;13.70;91.30;;;;;;4990082;28;20047;-61
2022/03/20 12:47:59;;;;;;;25.15;19.63;;;13.80;90.70;;;;;;4990152;28;20046;-61
2022/03/20 12:50:34;;;;;;;30.20;19.88;;;13.60;89.30;;;;;;5031664;28;20524;-61
2022/03/20 12:53:21;;;;;;;26.88;19.60;;;13.50;89.70;;;;;;5071498;28;20104;-61
2022/03/20 12:56:00;;;;;;;25.45;19.73;;;13.60;89.90;;;;;;5071161;28;20048;-62
2022/03/20 12:58:27;;;;;;;24.42;19.48;;;13.50;90.20;;;;;;5071797;28;20436;-62
2022/03/20 13:00:55;;;;;;;27.73;19.77;;;13.50;89.90;;;;;;5071626;28;20102;-63
2022/03/20 13:03:22;;;;;;;24.05;18.52;;;13.70;90.60;;;;;;5071354;28;20093;-62
2022/03/20 13:05:48;;;;;;;26.58;20.65;;;13.90;90.30;;;;;;5069882;28;20059;-61
2022/03/20 13:08:34;;;;;;;29.08;20.02;;;13.70;87.90;;;;;;5071468;28;20494;-61
2022/03/20 13:14:12;;;;;;;26.20;18.95;;;13.40;88.30;;;;;;5071100;28;20048;-61
2022/03/20 13:16:48;;;;;;;28.25;19.88;;;13.40;88.80;;;;;;5071361;28;20497;-61
2022/03/20 13:19:34;;;;;;;29.52;19.88;;;13.50;89.10;;;;;;5071312;28;20037;-62
2022/03/20 13:22:12;;;;;;;26.23;19.48;;;13.50;89.30;;;;;;5070091;28;20068;-62